Fenelton, PA

8:11 PM EDT on March 31, 2015 (GMT -0400)
Indiana County-Stewart | | Change Station
CLOSE
Current Station
Airport
Location: Indiana,
Elevation: 1407 ft
Nearby Weather Stations

Elev 1407 ft 40.63 °N, 79.11 °W | Updated 16 minutes ago

Overcast
Overcast
37 °F
Feels Like 33 °F
N
6
Wind Variable Wind from North
Gusts 14 mph

Today
High -- | Low -- °F
--% Chance of Precip.
Yesterday
High -- | Low -- °F
Precip. -- in
7:04 AM 7:42 PM
Waxing Gibbous, 89% visible
Pressure 29.89 in
Visibility 10.0 miles
Clouds Overcast 2000 ft
Windchill 33 °F
Dew Point 32 °F
Humidity 81%
Rainfall 0.00 in
Snow Depth Not available.
UV 0 out of 12
Pollen 4.00 out of 12
Air Quality Not available.
Flu Activity Not available.
METAR KIDI 312355Z AUTO 35005G12KT 10SM OVC020 03/00 A2989 RMK A01

More Conditions Fewer Conditions

Pressure 29.89 in
Visibility 10.0 miles
Clouds Overcast 2000 ft
Windchill 33 °F
Dew Point 32 °F
Humidity 81%
Rainfall 0.00 in
Snow Depth Not available.
UV 0 out of 12
Pollen 4.00 out of 12
Air Quality Not available.
Flu Activity Not available.
METAR KIDI 312355Z AUTO 35005G12KT 10SM OVC020 03/00 A2989 RMK A01

More Conditions Fewer Conditions

10-Day Weather Forecast

Almanac

Astronomy

Mar. 31, 2015 Rise Set
Actual Time
Civil Twilight
Nautical Twilight
Astronomical Twilight
Moon
Length of Visible Light
Length of Day
Tomorrow will be .
, % of the Moon is Illuminated

Today's Extremes

State Highs State Lows

Community

WunderPhotos

Upload Photos

1,809,883 photos uploaded!

WunderBlogs® & News

Nearby

Air Quality

  Air Quality AQ Index Pollutant
Not available.

Snow Depth

Station Depth Elevation

Earthquake Activity

City Distance Mag. Time & Date
Minimum magnitude displayed is 2.5.

Coastal Water Temperatures

Place Temperature

Stations

Nearby Weather Stations

Station Location Temp. Windchill Dew Point Humidity Wind Precip. Elev Updated Type